Carlisle, Kentucky
Current Conditions -  °F | °C
As of 4:55 AM on Sunday 23 Nov 2014 (Local Time) from KIOB Reporting Station
Overcast Overcast  
Wind Chill: 50°   Ceiling: 9500
Heat Index: 50°   Visibility: 10mi
Dew Point: 36°   Wind: 5mph
Humidity: 58%   Direction: 160°SSE
Pressure: 30.06"   Gusts: NA
Location:  38.31°N, 84.03°W
Report Text: KIOB 230955Z AUTO 16004KT 10SM SCT040 SCT047 OVC095 10/02 A3006 RMK AO2
Loading
Personal Weather Stations






























Interactive Weather Map New forecast layout! Learn more

10-Day Weather Forecast

Advertisements
Track Severe Weather on mobile